sensor_id;sensor_type;location;lat;lon;timestamp;temperature;humidity
48376;DHT22;34178;50.904;11.560;2024-02-28T00:00:10;4.90;99.90
48376;DHT22;34178;50.904;11.560;2024-02-28T00:02:36;4.90;99.90
48376;DHT22;34178;50.904;11.560;2024-02-28T00:05:01;5.00;99.90
48376;DHT22;34178;50.904;11.560;2024-02-28T00:07:27;5.00;99.90
48376;DHT22;34178;50.904;11.560;2024-02-28T00:09:52;5.00;99.90
48376;DHT22;34178;50.904;11.560;2024-02-28T00:12:25;4.90;99.90
48376;DHT22;34178;50.904;11.560;2024-02-28T00:14:51;4.90;99.90
48376;DHT22;34178;50.904;11.560;2024-02-28T00:17:16;4.80;99.90
48376;DHT22;34178;50.904;11.560;2024-02-28T00:19:42;4.70;99.90
48376;DHT22;34178;50.904;11.560;2024-02-28T00:22:08;4.70;99.90
48376;DHT22;34178;50.904;11.560;2024-02-28T00:24:34;4.80;99.90
48376;DHT22;34178;50.904;11.560;2024-02-28T00:27:00;4.80;99.90
48376;DHT22;34178;50.904;11.560;2024-02-28T00:29:26;4.80;99.90
48376;DHT22;34178;50.904;11.560;2024-02-28T00:31:51;4.80;99.90
48376;DHT22;34178;50.904;11.560;2024-02-28T00:34:17;4.80;99.90
48376;DHT22;34178;50.904;11.560;2024-02-28T00:36:42;4.80;99.90
48376;DHT22;34178;50.904;11.560;2024-02-28T00:39:09;4.90;99.90
48376;DHT22;34178;50.904;11.560;2024-02-28T00:41:34;4.80;99.90
48376;DHT22;34178;50.904;11.560;2024-02-28T00:44:00;4.80;99.90
48376;DHT22;34178;50.904;11.560;2024-02-28T00:46:25;4.80;99.90
48376;DHT22;34178;50.904;11.560;2024-02-28T00:48:51;4.80;99.90
48376;DHT22;34178;50.904;11.560;2024-02-28T00:51:16;4.80;99.90
48376;DHT22;34178;50.904;11.560;2024-02-28T00:53:42;4.80;99.90
48376;DHT22;34178;50.904;11.560;2024-02-28T00:56:08;4.70;99.90
48376;DHT22;34178;50.904;11.560;2024-02-28T00:58:34;4.60;99.90
48376;DHT22;34178;50.904;11.560;2024-02-28T01:00:59;4.50;99.90
48376;DHT22;34178;50.904;11.560;2024-02-28T01:03:25;4.40;99.90
48376;DHT22;34178;50.904;11.560;2024-02-28T01:05:50;4.50;99.90
48376;DHT22;34178;50.904;11.560;2024-02-28T01:08:16;4.50;99.90
48376;DHT22;34178;50.904;11.560;2024-02-28T01:10:45;4.60;99.90
48376;DHT22;34178;50.904;11.560;2024-02-28T01:13:11;4.60;99.90
48376;DHT22;34178;50.904;11.560;2024-02-28T01:15:37;4.60;99.90
48376;DHT22;34178;50.904;11.560;2024-02-28T01:18:04;4.50;99.90
48376;DHT22;34178;50.904;11.560;2024-02-28T01:20:30;4.50;99.90
48376;DHT22;34178;50.904;11.560;2024-02-28T01:22:55;4.50;99.90
48376;DHT22;34178;50.904;11.560;2024-02-28T01:25:21;4.40;99.90
48376;DHT22;34178;50.904;11.560;2024-02-28T01:27:46;4.40;99.90
48376;DHT22;34178;50.904;11.560;2024-02-28T01:30:12;4.40;99.90
48376;DHT22;34178;50.904;11.560;2024-02-28T01:32:37;4.40;99.90
48376;DHT22;34178;50.904;11.560;2024-02-28T01:35:03;4.40;99.90
48376;DHT22;34178;50.904;11.560;2024-02-28T01:37:29;4.30;99.90
48376;DHT22;34178;50.904;11.560;2024-02-28T01:39:55;4.30;99.90
48376;DHT22;34178;50.904;11.560;2024-02-28T01:42:20;4.30;99.90
48376;DHT22;34178;50.904;11.560;2024-02-28T01:44:47;4.30;99.90
48376;DHT22;34178;50.904;11.560;2024-02-28T01:47:13;4.40;99.90
48376;DHT22;34178;50.904;11.560;2024-02-28T01:49:40;4.40;99.90
48376;DHT22;34178;50.904;11.560;2024-02-28T01:52:06;4.40;99.90
48376;DHT22;34178;50.904;11.560;2024-02-28T01:54:32;4.50;99.90
48376;DHT22;34178;50.904;11.560;2024-02-28T01:57:00;4.50;99.90
48376;DHT22;34178;50.904;11.560;2024-02-28T01:59:26;4.40;99.90
48376;DHT22;34178;50.904;11.560;2024-02-28T02:01:52;4.50;99.90
48376;DHT22;34178;50.904;11.560;2024-02-28T02:04:18;4.40;99.90
48376;DHT22;34178;50.904;11.560;2024-02-28T02:06:43;4.30;99.90
48376;DHT22;34178;50.904;11.560;2024-02-28T02:09:10;4.30;99.90
48376;DHT22;34178;50.904;11.560;2024-02-28T02:11:36;4.30;99.90
48376;DHT22;34178;50.904;11.560;2024-02-28T02:14:01;4.30;99.90
48376;DHT22;34178;50.904;11.560;2024-02-28T02:16:27;4.40;99.90
48376;DHT22;34178;50.904;11.560;2024-02-28T02:18:53;4.30;99.90
48376;DHT22;34178;50.904;11.560;2024-02-28T02:21:23;4.30;99.90
48376;DHT22;34178;50.904;11.560;2024-02-28T02:23:52;4.40;99.90
48376;DHT22;34178;50.904;11.560;2024-02-28T02:26:18;4.40;99.90
48376;DHT22;34178;50.904;11.560;2024-02-28T02:28:43;4.40;99.90
48376;DHT22;34178;50.904;11.560;2024-02-28T02:31:10;4.40;99.90
48376;DHT22;34178;50.904;11.560;2024-02-28T02:33:36;4.40;99.90
48376;DHT22;34178;50.904;11.560;2024-02-28T02:36:01;4.40;99.90
48376;DHT22;34178;50.904;11.560;2024-02-28T02:38:27;4.30;99.90
48376;DHT22;34178;50.904;11.560;2024-02-28T02:40:52;4.40;99.90
48376;DHT22;34178;50.904;11.560;2024-02-28T02:43:18;4.50;99.90
48376;DHT22;34178;50.904;11.560;2024-02-28T02:45:44;4.50;99.90
48376;DHT22;34178;50.904;11.560;2024-02-28T02:48:09;4.50;99.90
48376;DHT22;34178;50.904;11.560;2024-02-28T02:50:35;4.40;99.90
48376;DHT22;34178;50.904;11.560;2024-02-28T02:53:02;4.40;99.90
48376;DHT22;34178;50.904;11.560;2024-02-28T02:55:27;4.40;99.90
48376;DHT22;34178;50.904;11.560;2024-02-28T02:57:53;4.40;99.90
48376;DHT22;34178;50.904;11.560;2024-02-28T03:00:18;4.30;99.90
48376;DHT22;34178;50.904;11.560;2024-02-28T03:02:44;4.30;99.90
48376;DHT22;34178;50.904;11.560;2024-02-28T03:05:09;4.20;99.90
48376;DHT22;34178;50.904;11.560;2024-02-28T03:07:35;4.10;99.90
48376;DHT22;34178;50.904;11.560;2024-02-28T03:10:00;4.10;99.90
48376;DHT22;34178;50.904;11.560;2024-02-28T03:12:27;4.20;99.90
48376;DHT22;34178;50.904;11.560;2024-02-28T03:14:52;4.20;99.90
48376;DHT22;34178;50.904;11.560;2024-02-28T03:17:18;4.30;99.90
48376;DHT22;34178;50.904;11.560;2024-02-28T03:19:43;4.30;99.90
48376;DHT22;34178;50.904;11.560;2024-02-28T03:22:09;4.20;99.90
48376;DHT22;34178;50.904;11.560;2024-02-28T03:24:34;4.20;99.90
48376;DHT22;34178;50.904;11.560;2024-02-28T03:27:01;4.20;99.90
48376;DHT22;34178;50.904;11.560;2024-02-28T03:29:27;4.40;99.90
48376;DHT22;34178;50.904;11.560;2024-02-28T03:31:52;4.30;99.90
48376;DHT22;34178;50.904;11.560;2024-02-28T03:34:18;4.30;99.90
48376;DHT22;34178;50.904;11.560;2024-02-28T03:36:43;4.30;99.90
48376;DHT22;34178;50.904;11.560;2024-02-28T03:39:09;4.30;99.90
48376;DHT22;34178;50.904;11.560;2024-02-28T03:41:35;4.30;99.90
48376;DHT22;34178;50.904;11.560;2024-02-28T03:44:00;4.40;99.90
48376;DHT22;34178;50.904;11.560;2024-02-28T03:46:26;4.40;99.90
48376;DHT22;34178;50.904;11.560;2024-02-28T03:48:51;4.30;99.90
48376;DHT22;34178;50.904;11.560;2024-02-28T03:51:17;4.20;99.90
48376;DHT22;34178;50.904;11.560;2024-02-28T03:53:42;4.30;99.90
48376;DHT22;34178;50.904;11.560;2024-02-28T03:56:08;4.40;99.90
48376;DHT22;34178;50.904;11.560;2024-02-28T03:58:34;4.20;99.90
48376;DHT22;34178;50.904;11.560;2024-02-28T04:01:00;4.20;99.90
48376;DHT22;34178;50.904;11.560;2024-02-28T04:03:26;4.30;99.90
48376;DHT22;34178;50.904;11.560;2024-02-28T04:05:51;4.20;99.90
48376;DHT22;34178;50.904;11.560;2024-02-28T04:08:17;4.20;99.90
48376;DHT22;34178;50.904;11.560;2024-02-28T04:10:42;4.30;99.90
48376;DHT22;34178;50.904;11.560;2024-02-28T04:13:08;4.30;99.90
48376;DHT22;34178;50.904;11.560;2024-02-28T04:15:34;4.40;99.90
48376;DHT22;34178;50.904;11.560;2024-02-28T04:18:00;4.40;99.90
48376;DHT22;34178;50.904;11.560;2024-02-28T04:20:25;4.40;99.90
48376;DHT22;34178;50.904;11.560;2024-02-28T04:22:51;4.40;99.90
48376;DHT22;34178;50.904;11.560;2024-02-28T04:25:16;4.40;99.90
48376;DHT22;34178;50.904;11.560;2024-02-28T04:27:42;4.40;99.90
48376;DHT22;34178;50.904;11.560;2024-02-28T04:30:09;4.40;99.90
48376;DHT22;34178;50.904;11.560;2024-02-28T04:32:34;4.40;99.90
48376;DHT22;34178;50.904;11.560;2024-02-28T04:35:00;4.40;99.90
48376;DHT22;34178;50.904;11.560;2024-02-28T04:37:26;4.40;99.90
48376;DHT22;34178;50.904;11.560;2024-02-28T04:39:52;4.40;99.90
48376;DHT22;34178;50.904;11.560;2024-02-28T04:42:17;4.40;99.90
48376;DHT22;34178;50.904;11.560;2024-02-28T04:44:43;4.40;99.90
48376;DHT22;34178;50.904;11.560;2024-02-28T04:47:08;4.30;99.90
48376;DHT22;34178;50.904;11.560;2024-02-28T04:49:37;4.30;99.90
48376;DHT22;34178;50.904;11.560;2024-02-28T04:52:03;4.40;99.90
48376;DHT22;34178;50.904;11.560;2024-02-28T04:54:29;4.40;99.90
48376;DHT22;34178;50.904;11.560;2024-02-28T04:56:54;4.30;99.90
48376;DHT22;34178;50.904;11.560;2024-02-28T04:59:20;4.30;99.90
48376;DHT22;34178;50.904;11.560;2024-02-28T05:01:45;4.30;99.90
48376;DHT22;34178;50.904;11.560;2024-02-28T05:04:11;4.30;99.90
48376;DHT22;34178;50.904;11.560;2024-02-28T05:06:37;4.30;99.90
48376;DHT22;34178;50.904;11.560;2024-02-28T05:09:02;4.30;99.90
48376;DHT22;34178;50.904;11.560;2024-02-28T05:11:28;4.30;99.90
48376;DHT22;34178;50.904;11.560;2024-02-28T05:13:53;4.30;99.90
48376;DHT22;34178;50.904;11.560;2024-02-28T05:16:19;4.30;99.90
48376;DHT22;34178;50.904;11.560;2024-02-28T05:18:44;4.30;99.90
48376;DHT22;34178;50.904;11.560;2024-02-28T05:21:11;4.30;99.90
48376;DHT22;34178;50.904;11.560;2024-02-28T05:23:36;4.30;99.90
48376;DHT22;34178;50.904;11.560;2024-02-28T05:26:02;4.30;99.90
48376;DHT22;34178;50.904;11.560;2024-02-28T05:28:29;4.40;99.90
48376;DHT22;34178;50.904;11.560;2024-02-28T05:30:56;4.40;99.90
48376;DHT22;34178;50.904;11.560;2024-02-28T05:33:22;4.40;99.90
48376;DHT22;34178;50.904;11.560;2024-02-28T05:35:47;4.40;99.90
48376;DHT22;34178;50.904;11.560;2024-02-28T05:38:13;4.40;99.90
48376;DHT22;34178;50.904;11.560;2024-02-28T05:40:38;4.40;99.90
48376;DHT22;34178;50.904;11.560;2024-02-28T05:43:04;4.40;99.90
48376;DHT22;34178;50.904;11.560;2024-02-28T05:45:29;4.40;99.90
48376;DHT22;34178;50.904;11.560;2024-02-28T05:47:55;4.40;99.90
48376;DHT22;34178;50.904;11.560;2024-02-28T05:50:20;4.40;99.90
48376;DHT22;34178;50.904;11.560;2024-02-28T05:52:46;4.40;99.90
48376;DHT22;34178;50.904;11.560;2024-02-28T05:55:12;4.30;99.90
48376;DHT22;34178;50.904;11.560;2024-02-28T05:57:38;4.30;99.90
48376;DHT22;34178;50.904;11.560;2024-02-28T06:00:03;4.20;99.90
48376;DHT22;34178;50.904;11.560;2024-02-28T06:02:38;4.30;99.90
48376;DHT22;34178;50.904;11.560;2024-02-28T06:05:03;4.30;99.90
48376;DHT22;34178;50.904;11.560;2024-02-28T06:07:30;4.30;99.90
48376;DHT22;34178;50.904;11.560;2024-02-28T06:09:55;4.40;99.90
48376;DHT22;34178;50.904;11.560;2024-02-28T06:12:21;4.40;99.90
48376;DHT22;34178;50.904;11.560;2024-02-28T06:14:46;4.40;99.90
48376;DHT22;34178;50.904;11.560;2024-02-28T06:17:12;4.50;99.90
48376;DHT22;34178;50.904;11.560;2024-02-28T06:19:38;4.40;99.90
48376;DHT22;34178;50.904;11.560;2024-02-28T06:22:04;4.30;99.90
48376;DHT22;34178;50.904;11.560;2024-02-28T06:24:29;4.20;99.90
48376;DHT22;34178;50.904;11.560;2024-02-28T06:26:55;4.20;99.90
48376;DHT22;34178;50.904;11.560;2024-02-28T06:29:20;4.30;99.90
48376;DHT22;34178;50.904;11.560;2024-02-28T06:31:50;4.40;99.90
48376;DHT22;34178;50.904;11.560;2024-02-28T06:34:17;4.40;99.90
48376;DHT22;34178;50.904;11.560;2024-02-28T06:36:42;4.40;99.90
48376;DHT22;34178;50.904;11.560;2024-02-28T06:39:08;4.40;99.90
48376;DHT22;34178;50.904;11.560;2024-02-28T06:41:33;4.50;99.90
48376;DHT22;34178;50.904;11.560;2024-02-28T06:43:59;4.50;99.90
48376;DHT22;34178;50.904;11.560;2024-02-28T06:46:24;4.60;99.90
48376;DHT22;34178;50.904;11.560;2024-02-28T06:48:50;4.60;99.90
48376;DHT22;34178;50.904;11.560;2024-02-28T06:51:16;4.60;99.90
48376;DHT22;34178;50.904;11.560;2024-02-28T06:53:42;4.70;99.90
48376;DHT22;34178;50.904;11.560;2024-02-28T06:56:08;4.70;99.90
48376;DHT22;34178;50.904;11.560;2024-02-28T06:58:34;4.80;99.90
48376;DHT22;34178;50.904;11.560;2024-02-28T07:00:59;4.80;99.90
48376;DHT22;34178;50.904;11.560;2024-02-28T07:03:25;4.90;99.90
48376;DHT22;34178;50.904;11.560;2024-02-28T07:05:51;4.90;99.90
48376;DHT22;34178;50.904;11.560;2024-02-28T07:08:18;4.90;99.90
48376;DHT22;34178;50.904;11.560;2024-02-28T07:10:44;4.90;99.90
48376;DHT22;34178;50.904;11.560;2024-02-28T07:13:12;4.80;99.90
48376;DHT22;34178;50.904;11.560;2024-02-28T07:15:38;4.90;99.90
48376;DHT22;34178;50.904;11.560;2024-02-28T07:18:07;4.90;99.90
48376;DHT22;34178;50.904;11.560;2024-02-28T07:20:33;5.00;99.90
48376;DHT22;34178;50.904;11.560;2024-02-28T07:22:58;5.00;99.90
48376;DHT22;34178;50.904;11.560;2024-02-28T07:25:24;5.10;99.90
48376;DHT22;34178;50.904;11.560;2024-02-28T07:27:49;5.10;99.90
48376;DHT22;34178;50.904;11.560;2024-02-28T07:30:15;5.10;99.90
48376;DHT22;34178;50.904;11.560;2024-02-28T07:32:40;5.30;99.90
48376;DHT22;34178;50.904;11.560;2024-02-28T07:35:06;5.30;99.90
48376;DHT22;34178;50.904;11.560;2024-02-28T07:37:32;5.40;99.90
48376;DHT22;34178;50.904;11.560;2024-02-28T07:39:57;5.40;99.90
48376;DHT22;34178;50.904;11.560;2024-02-28T07:42:23;5.50;99.90
48376;DHT22;34178;50.904;11.560;2024-02-28T07:44:48;5.60;99.90
48376;DHT22;34178;50.904;11.560;2024-02-28T07:47:19;5.80;99.90
48376;DHT22;34178;50.904;11.560;2024-02-28T07:49:44;5.90;99.90
48376;DHT22;34178;50.904;11.560;2024-02-28T07:52:10;6.00;99.90
48376;DHT22;34178;50.904;11.560;2024-02-28T07:54:35;6.10;99.90
48376;DHT22;34178;50.904;11.560;2024-02-28T07:57:02;6.10;99.90
48376;DHT22;34178;50.904;11.560;2024-02-28T07:59:27;6.10;99.90
48376;DHT22;34178;50.904;11.560;2024-02-28T08:01:53;6.10;99.90
48376;DHT22;34178;50.904;11.560;2024-02-28T08:04:19;5.90;99.90
48376;DHT22;34178;50.904;11.560;2024-02-28T08:06:44;5.80;99.90
48376;DHT22;34178;50.904;11.560;2024-02-28T08:09:10;5.50;99.90
48376;DHT22;34178;50.904;11.560;2024-02-28T08:11:35;5.10;99.90
48376;DHT22;34178;50.904;11.560;2024-02-28T08:14:01;5.10;99.90
48376;DHT22;34178;50.904;11.560;2024-02-28T08:16:26;5.30;99.90
48376;DHT22;34178;50.904;11.560;2024-02-28T08:18:52;5.30;99.90
48376;DHT22;34178;50.904;11.560;2024-02-28T08:21:17;5.40;99.90
48376;DHT22;34178;50.904;11.560;2024-02-28T08:23:43;5.40;99.90
48376;DHT22;34178;50.904;11.560;2024-02-28T08:26:09;5.50;99.90
48376;DHT22;34178;50.904;11.560;2024-02-28T08:28:34;5.70;99.90
48376;DHT22;34178;50.904;11.560;2024-02-28T08:31:00;5.80;99.90
48376;DHT22;34178;50.904;11.560;2024-02-28T08:33:25;5.90;99.90
48376;DHT22;34178;50.904;11.560;2024-02-28T08:35:51;6.00;99.90
48376;DHT22;34178;50.904;11.560;2024-02-28T08:38:16;6.00;99.90
48376;DHT22;34178;50.904;11.560;2024-02-28T08:40:42;6.10;99.90
48376;DHT22;34178;50.904;11.560;2024-02-28T08:43:08;6.30;99.90
48376;DHT22;34178;50.904;11.560;2024-02-28T08:45:33;6.10;99.90
48376;DHT22;34178;50.904;11.560;2024-02-28T08:47:59;6.10;99.90
48376;DHT22;34178;50.904;11.560;2024-02-28T08:50:27;5.80;99.90
48376;DHT22;34178;50.904;11.560;2024-02-28T08:52:52;5.70;99.90
48376;DHT22;34178;50.904;11.560;2024-02-28T08:55:18;5.70;99.90
48376;DHT22;34178;50.904;11.560;2024-02-28T08:57:45;5.80;99.90
48376;DHT22;34178;50.904;11.560;2024-02-28T09:00:11;5.90;99.90
48376;DHT22;34178;50.904;11.560;2024-02-28T09:02:37;6.10;99.90
48376;DHT22;34178;50.904;11.560;2024-02-28T09:05:03;6.40;99.90
48376;DHT22;34178;50.904;11.560;2024-02-28T09:07:29;6.60;99.90
48376;DHT22;34178;50.904;11.560;2024-02-28T09:09:54;6.60;99.90
48376;DHT22;34178;50.904;11.560;2024-02-28T09:12:20;6.80;99.90
48376;DHT22;34178;50.904;11.560;2024-02-28T09:14:45;6.80;99.90
48376;DHT22;34178;50.904;11.560;2024-02-28T09:17:11;6.70;99.90
48376;DHT22;34178;50.904;11.560;2024-02-28T09:19:36;6.50;99.90
48376;DHT22;34178;50.904;11.560;2024-02-28T09:22:02;6.40;99.90
48376;DHT22;34178;50.904;11.560;2024-02-28T09:24:28;6.30;99.90
48376;DHT22;34178;50.904;11.560;2024-02-28T09:26:53;6.40;99.90
48376;DHT22;34178;50.904;11.560;2024-02-28T09:29:19;6.40;99.90
48376;DHT22;34178;50.904;11.560;2024-02-28T09:31:44;6.40;99.90
48376;DHT22;34178;50.904;11.560;2024-02-28T09:34:10;6.30;99.90
48376;DHT22;34178;50.904;11.560;2024-02-28T09:36:41;6.30;99.90
48376;DHT22;34178;50.904;11.560;2024-02-28T09:39:08;6.30;99.90
48376;DHT22;34178;50.904;11.560;2024-02-28T09:41:33;6.40;99.90
48376;DHT22;34178;50.904;11.560;2024-02-28T09:43:59;6.70;99.90
48376;DHT22;34178;50.904;11.560;2024-02-28T09:46:25;7.10;99.90
48376;DHT22;34178;50.904;11.560;2024-02-28T09:48:51;7.20;99.90
48376;DHT22;34178;50.904;11.560;2024-02-28T09:51:18;7.20;99.90
48376;DHT22;34178;50.904;11.560;2024-02-28T09:53:43;7.30;99.90
48376;DHT22;34178;50.904;11.560;2024-02-28T09:56:09;7.30;99.90
48376;DHT22;34178;50.904;11.560;2024-02-28T09:58:35;7.40;99.90
48376;DHT22;34178;50.904;11.560;2024-02-28T10:01:03;7.10;99.90
48376;DHT22;34178;50.904;11.560;2024-02-28T10:03:29;7.10;99.90
48376;DHT22;34178;50.904;11.560;2024-02-28T10:05:55;7.10;99.90
48376;DHT22;34178;50.904;11.560;2024-02-28T10:08:20;7.30;99.90
48376;DHT22;34178;50.904;11.560;2024-02-28T10:10:46;7.30;99.90
48376;DHT22;34178;50.904;11.560;2024-02-28T10:13:19;7.50;99.90
48376;DHT22;34178;50.904;11.560;2024-02-28T10:15:45;7.50;99.90
48376;DHT22;34178;50.904;11.560;2024-02-28T10:18:10;7.50;99.90
48376;DHT22;34178;50.904;11.560;2024-02-28T10:20:36;7.40;99.90
48376;DHT22;34178;50.904;11.560;2024-02-28T10:23:05;7.20;99.90
48376;DHT22;34178;50.904;11.560;2024-02-28T10:25:31;7.10;99.90
48376;DHT22;34178;50.904;11.560;2024-02-28T10:28:00;7.20;99.90
48376;DHT22;34178;50.904;11.560;2024-02-28T10:30:26;7.30;99.90
48376;DHT22;34178;50.904;11.560;2024-02-28T10:32:52;7.60;99.90
48376;DHT22;34178;50.904;11.560;2024-02-28T10:35:18;7.80;99.90
48376;DHT22;34178;50.904;11.560;2024-02-28T10:37:51;7.90;99.90
48376;DHT22;34178;50.904;11.560;2024-02-28T10:40:17;8.10;99.90
48376;DHT22;34178;50.904;11.560;2024-02-28T10:42:43;8.10;99.90
48376;DHT22;34178;50.904;11.560;2024-02-28T10:45:12;8.10;99.90
48376;DHT22;34178;50.904;11.560;2024-02-28T10:47:38;8.10;99.90
48376;DHT22;34178;50.904;11.560;2024-02-28T10:50:04;8.30;99.90
48376;DHT22;34178;50.904;11.560;2024-02-28T10:52:29;8.30;99.90
48376;DHT22;34178;50.904;11.560;2024-02-28T10:54:59;8.30;99.90
48376;DHT22;34178;50.904;11.560;2024-02-28T10:57:25;8.20;99.90
48376;DHT22;34178;50.904;11.560;2024-02-28T10:59:51;8.10;99.90
48376;DHT22;34178;50.904;11.560;2024-02-28T11:02:18;8.10;99.90
48376;DHT22;34178;50.904;11.560;2024-02-28T11:04:44;8.30;99.90
48376;DHT22;34178;50.904;11.560;2024-02-28T11:07:09;8.20;99.90
48376;DHT22;34178;50.904;11.560;2024-02-28T11:09:35;8.30;99.80
48376;DHT22;34178;50.904;11.560;2024-02-28T11:12:00;8.40;99.30
48376;DHT22;34178;50.904;11.560;2024-02-28T11:14:29;8.60;99.90
48376;DHT22;34178;50.904;11.560;2024-02-28T11:17:04;8.60;99.60
48376;DHT22;34178;50.904;11.560;2024-02-28T11:19:31;8.80;99.90
48376;DHT22;34178;50.904;11.560;2024-02-28T11:22:01;9.10;99.70
48376;DHT22;34178;50.904;11.560;2024-02-28T11:24:30;9.40;99.70
48376;DHT22;34178;50.904;11.560;2024-02-28T11:26:56;9.50;99.00
48376;DHT22;34178;50.904;11.560;2024-02-28T11:29:25;9.60;99.90
48376;DHT22;34178;50.904;11.560;2024-02-28T11:31:50;9.60;98.20
48376;DHT22;34178;50.904;11.560;2024-02-28T11:34:16;9.40;96.00
48376;DHT22;34178;50.904;11.560;2024-02-28T11:36:42;9.30;96.30
48376;DHT22;34178;50.904;11.560;2024-02-28T11:39:07;9.30;95.10
48376;DHT22;34178;50.904;11.560;2024-02-28T11:41:33;9.30;94.80
48376;DHT22;34178;50.904;11.560;2024-02-28T11:43:58;9.40;93.10
48376;DHT22;34178;50.904;11.560;2024-02-28T11:46:24;9.40;91.80
48376;DHT22;34178;50.904;11.560;2024-02-28T11:48:49;9.50;93.80
48376;DHT22;34178;50.904;11.560;2024-02-28T11:51:15;11.60;94.50
48376;DHT22;34178;50.904;11.560;2024-02-28T11:53:40;17.70;86.30
48376;DHT22;34178;50.904;11.560;2024-02-28T11:56:06;21.90;72.60
48376;DHT22;34178;50.904;11.560;2024-02-28T11:58:33;25.40;64.70
48376;DHT22;34178;50.904;11.560;2024-02-28T12:00:59;26.80;58.60
48376;DHT22;34178;50.904;11.560;2024-02-28T12:03:24;26.90;52.50
48376;DHT22;34178;50.904;11.560;2024-02-28T12:05:52;26.50;52.30
48376;DHT22;34178;50.904;11.560;2024-02-28T12:08:18;24.60;52.00
48376;DHT22;34178;50.904;11.560;2024-02-28T12:10:44;24.50;50.70
48376;DHT22;34178;50.904;11.560;2024-02-28T12:13:10;23.80;52.00
48376;DHT22;34178;50.904;11.560;2024-02-28T12:15:38;24.60;51.70
48376;DHT22;34178;50.904;11.560;2024-02-28T12:18:09;26.80;50.90
48376;DHT22;34178;50.904;11.560;2024-02-28T12:20:35;28.60;48.50
48376;DHT22;34178;50.904;11.560;2024-02-28T12:23:02;29.30;47.40
48376;DHT22;34178;50.904;11.560;2024-02-28T12:25:28;27.30;45.60
48376;DHT22;34178;50.904;11.560;2024-02-28T12:27:54;24.80;45.50
48376;DHT22;34178;50.904;11.560;2024-02-28T12:30:19;27.30;43.90
48376;DHT22;34178;50.904;11.560;2024-02-28T12:32:46;26.20;44.50
48376;DHT22;34178;50.904;11.560;2024-02-28T12:35:11;27.30;43.30
48376;DHT22;34178;50.904;11.560;2024-02-28T12:37:37;28.40;43.10
48376;DHT22;34178;50.904;11.560;2024-02-28T12:40:04;25.60;44.50
48376;DHT22;34178;50.904;11.560;2024-02-28T12:42:31;24.90;44.20
48376;DHT22;34178;50.904;11.560;2024-02-28T12:44:57;26.50;45.10
48376;DHT22;34178;50.904;11.560;2024-02-28T12:47:22;25.20;45.20
48376;DHT22;34178;50.904;11.560;2024-02-28T12:49:48;24.10;43.90
48376;DHT22;34178;50.904;11.560;2024-02-28T12:52:13;26.40;42.70
48376;DHT22;34178;50.904;11.560;2024-02-28T12:54:39;26.70;42.00
48376;DHT22;34178;50.904;11.560;2024-02-28T12:57:04;28.40;43.80
48376;DHT22;34178;50.904;11.560;2024-02-28T12:59:31;30.90;42.20
48376;DHT22;34178;50.904;11.560;2024-02-28T13:01:58;29.80;40.70
48376;DHT22;34178;50.904;11.560;2024-02-28T13:17:20;30.20;41.40
48376;DHT22;34178;50.904;11.560;2024-02-28T13:19:46;30.30;37.90
48376;DHT22;34178;50.904;11.560;2024-02-28T13:22:11;27.90;39.20
48376;DHT22;34178;50.904;11.560;2024-02-28T13:24:37;26.00;39.80
48376;DHT22;34178;50.904;11.560;2024-02-28T13:27:02;28.60;41.00
48376;DHT22;34178;50.904;11.560;2024-02-28T13:29:31;29.80;39.50
48376;DHT22;34178;50.904;11.560;2024-02-28T13:34:22;29.60;38.10
48376;DHT22;34178;50.904;11.560;2024-02-28T13:36:48;29.90;39.20
48376;DHT22;34178;50.904;11.560;2024-02-28T13:39:14;29.80;38.50
48376;DHT22;34178;50.904;11.560;2024-02-28T13:41:41;29.10;39.40
48376;DHT22;34178;50.904;11.560;2024-02-28T13:44:06;29.20;38.90
48376;DHT22;34178;50.904;11.560;2024-02-28T13:46:33;27.90;40.90
48376;DHT22;34178;50.904;11.560;2024-02-28T13:48:58;29.40;41.00
48376;DHT22;34178;50.904;11.560;2024-02-28T13:51:24;31.30;40.70
48376;DHT22;34178;50.904;11.560;2024-02-28T13:53:49;28.10;39.20
48376;DHT22;34178;50.904;11.560;2024-02-28T13:56:17;27.80;39.40
48376;DHT22;34178;50.904;11.560;2024-02-28T13:58:43;29.50;39.90
48376;DHT22;34178;50.904;11.560;2024-02-28T14:01:09;30.30;39.20
48376;DHT22;34178;50.904;11.560;2024-02-28T14:03:34;31.60;41.20
48376;DHT22;34178;50.904;11.560;2024-02-28T14:06:00;33.00;39.80
48376;DHT22;34178;50.904;11.560;2024-02-28T14:08:25;30.50;39.10
48376;DHT22;34178;50.904;11.560;2024-02-28T14:10:51;30.30;39.50
48376;DHT22;34178;50.904;11.560;2024-02-28T14:13:17;30.20;39.50
48376;DHT22;34178;50.904;11.560;2024-02-28T14:15:44;31.40;39.80
48376;DHT22;34178;50.904;11.560;2024-02-28T14:18:11;31.10;39.30
48376;DHT22;34178;50.904;11.560;2024-02-28T14:20:37;30.70;38.80
48376;DHT22;34178;50.904;11.560;2024-02-28T14:23:03;30.00;39.00
48376;DHT22;34178;50.904;11.560;2024-02-28T14:25:30;28.60;39.90
48376;DHT22;34178;50.904;11.560;2024-02-28T14:27:56;28.40;41.40
48376;DHT22;34178;50.904;11.560;2024-02-28T14:30:21;28.80;40.10
48376;DHT22;34178;50.904;11.560;2024-02-28T14:32:47;28.10;39.90
48376;DHT22;34178;50.904;11.560;2024-02-28T14:35:14;28.10;40.70
48376;DHT22;34178;50.904;11.560;2024-02-28T14:37:40;27.60;40.70
48376;DHT22;34178;50.904;11.560;2024-02-28T14:40:06;27.00;41.90
48376;DHT22;34178;50.904;11.560;2024-02-28T14:42:35;26.80;41.10
48376;DHT22;34178;50.904;11.560;2024-02-28T14:45:01;26.90;41.40
48376;DHT22;34178;50.904;11.560;2024-02-28T14:47:26;26.30;43.50
48376;DHT22;34178;50.904;11.560;2024-02-28T14:49:52;26.30;41.20
48376;DHT22;34178;50.904;11.560;2024-02-28T14:52:17;24.70;42.10
48376;DHT22;34178;50.904;11.560;2024-02-28T14:54:43;24.30;42.60
48376;DHT22;34178;50.904;11.560;2024-02-28T14:57:10;24.00;42.50
48376;DHT22;34178;50.904;11.560;2024-02-28T14:59:35;22.90;43.70
48376;DHT22;34178;50.904;11.560;2024-02-28T15:02:01;23.10;43.20
48376;DHT22;34178;50.904;11.560;2024-02-28T15:04:26;23.20;43.40
48376;DHT22;34178;50.904;11.560;2024-02-28T15:06:52;22.70;42.30
48376;DHT22;34178;50.904;11.560;2024-02-28T15:09:20;22.50;43.20
48376;DHT22;34178;50.904;11.560;2024-02-28T15:11:47;23.10;43.10
48376;DHT22;34178;50.904;11.560;2024-02-28T15:14:13;22.40;43.00
48376;DHT22;34178;50.904;11.560;2024-02-28T15:16:39;22.20;43.30
48376;DHT22;34178;50.904;11.560;2024-02-28T15:19:05;21.90;43.60
48376;DHT22;34178;50.904;11.560;2024-02-28T15:21:30;21.60;45.20
48376;DHT22;34178;50.904;11.560;2024-02-28T15:23:56;21.70;45.20
48376;DHT22;34178;50.904;11.560;2024-02-28T15:26:22;20.30;45.20
48376;DHT22;34178;50.904;11.560;2024-02-28T15:28:47;19.50;46.20
48376;DHT22;34178;50.904;11.560;2024-02-28T15:31:13;18.60;49.40
48376;DHT22;34178;50.904;11.560;2024-02-28T15:33:38;18.20;48.80